createdAt,value
2023-05-22T00:11:01.876Z,100499.48
2023-05-22T00:26:04.790Z,100487.20
2023-05-22T00:41:07.519Z,100489.46
2023-05-22T00:56:10.565Z,100482.41
2023-05-22T01:11:23.198Z,100482.89
2023-05-22T01:26:47.220Z,100488.10
2023-05-22T01:41:50.569Z,100488.48
2023-05-22T01:57:08.422Z,100487.99
2023-05-22T02:12:12.736Z,100486.57
2023-05-22T02:27:16.880Z,100482.20
2023-05-22T02:42:19.554Z,100479.74
2023-05-22T02:57:22.149Z,100475.22
2023-05-22T03:12:24.700Z,100478.75
2023-05-22T03:27:27.510Z,100470.80
2023-05-22T03:42:30.030Z,100465.80
2023-05-22T03:57:33.309Z,100468.92
2023-05-22T04:12:36.207Z,100467.02
2023-05-22T04:27:39.038Z,100462.60
2023-05-22T04:42:42.487Z,100458.31
2023-05-22T04:57:45.470Z,100453.97
2023-05-22T05:12:48.277Z,100461.21
2023-05-22T05:27:51.015Z,100471.67
2023-05-22T05:42:53.728Z,100473.55
2023-05-22T05:57:56.378Z,100473.10
2023-05-22T06:12:59.277Z,100462.11
2023-05-22T06:28:02.463Z,100454.40
2023-05-22T06:43:05.086Z,100454.65
2023-05-22T06:58:07.856Z,100454.52
2023-05-22T07:13:11.277Z,100464.58
2023-05-22T07:28:14.041Z,100464.98
2023-05-22T07:43:16.727Z,100459.91
2023-05-22T07:58:19.763Z,100459.30
2023-05-22T08:13:22.695Z,100453.63
2023-05-22T08:28:25.718Z,100440.20
2023-05-22T08:43:29.372Z,100440.36
2023-05-22T08:58:35.130Z,100439.20
2023-05-22T09:13:40.630Z,100423.80
2023-05-22T09:28:44.448Z,100406.45
2023-05-22T09:43:51.298Z,100397.23
2023-05-22T09:58:54.055Z,100391.94
2023-05-22T10:13:58.873Z,100388.33
2023-05-22T10:29:14.932Z,100365.38
2023-05-22T10:44:18.325Z,100367.42
2023-05-22T10:59:34.295Z,100363.79
2023-05-22T11:14:37.372Z,100349.75
2023-05-22T11:29:42.914Z,100338.38
2023-05-22T11:44:45.954Z,100337.92
2023-05-22T11:59:48.921Z,100325.80
2023-05-22T12:14:51.804Z,100322.41
2023-05-22T12:29:56.703Z,100303.27
2023-05-22T12:45:00.618Z,100303.76
2023-05-22T13:00:05.919Z,100286.38
2023-05-22T13:15:08.984Z,100282.79
2023-05-22T13:30:12.233Z,100268.98
2023-05-22T13:45:15.106Z,100261.64
2023-05-22T14:00:18.678Z,100240.05
2023-05-22T14:15:21.973Z,100237.61
2023-05-22T14:30:26.505Z,100216.13
2023-05-22T14:45:29.411Z,100209.79
2023-05-22T15:00:32.213Z,100205.14
2023-05-22T15:15:34.943Z,100195.64
2023-05-22T15:30:39.110Z,100182.21
2023-05-22T15:45:47.278Z,100164.76
2023-05-22T16:00:50.309Z,100146.30
2023-05-22T16:15:53.516Z,100137.41
2023-05-22T16:30:56.517Z,100124.75
2023-05-22T16:45:59.391Z,100126.02
2023-05-22T17:01:02.056Z,100133.82
2023-05-22T17:16:05.271Z,100136.52
2023-05-22T17:31:08.145Z,100133.79
2023-05-22T17:46:11.132Z,100138.92
2023-05-22T18:01:13.933Z,100127.43
2023-05-22T18:16:20.063Z,100127.31
2023-05-22T18:31:23.174Z,100121.45
2023-05-22T18:46:27.170Z,100120.82
2023-05-22T19:01:29.987Z,100126.02
2023-05-22T19:16:33.114Z,100133.20
2023-05-22T19:31:36.578Z,100134.34
2023-05-22T19:46:39.584Z,100141.42
2023-05-22T20:01:43.265Z,100139.76
2023-05-22T20:16:46.548Z,100140.75
2023-05-22T20:31:54.933Z,100133.70
2023-05-22T20:46:58.376Z,100125.40
2023-05-22T21:02:01.324Z,100128.41
2023-05-22T21:17:04.520Z,100127.35
2023-05-22T21:32:08.012Z,100134.48
2023-05-22T21:47:10.730Z,100131.83
2023-05-22T22:02:13.851Z,100128.52
2023-05-22T22:17:23.777Z,100120.27
2023-05-22T22:32:27.231Z,100122.52
2023-05-22T22:47:30.176Z,100116.20
2023-05-22T23:02:32.869Z,100102.10
2023-05-22T23:17:36.027Z,100102.05
2023-05-22T23:32:38.907Z,100091.14
2023-05-22T23:47:41.751Z,100078.11
